Time;durP1;ratioP1;P1;durP2;ratioP2;P2;SDS_P1;SDS_P2;PMS_P1;PMS_P2;Temp;Humidity;BMP_temperature;BMP_pressure;BME280_temperature;BME280_humidity;BME280_pressure;Samples;Min_cycle;Max_cycle;Signal;HPM_P1;HPM_P2
2023/03/03 00:00:45;;;;;;;37.00;33.70;;;8.30;24.30;;;;;;4947326;29;20474;-47
2023/03/03 00:03:15;;;;;;;35.10;31.90;;;8.30;24.10;;;;;;4947492;29;20511;-45
2023/03/03 00:05:41;;;;;;;36.50;33.30;;;8.30;24.10;;;;;;4948011;29;20176;-46
2023/03/03 00:08:07;;;;;;;38.77;35.17;;;8.30;24.10;;;;;;4946927;29;20610;-43
2023/03/03 00:10:33;;;;;;;38.03;34.63;;;8.30;24.10;;;;;;4947362;29;20516;-44
2023/03/03 00:12:59;;;;;;;36.77;33.60;;;8.30;24.00;;;;;;4948552;29;20513;-45
2023/03/03 00:15:25;;;;;;;37.93;34.53;;;8.30;23.90;;;;;;4948040;29;20220;-44
2023/03/03 00:17:52;;;;;;;37.03;33.80;;;8.20;23.90;;;;;;4948155;29;20416;-47
2023/03/03 00:20:38;;;;;;;38.87;35.37;;;8.30;24.20;;;;;;4947496;29;20415;-45
2023/03/03 00:23:18;;;;;;;37.13;33.63;;;8.20;24.10;;;;;;4947733;29;20430;-47
2023/03/03 00:25:45;;;;;;;37.87;34.67;;;8.20;24.00;;;;;;4947059;29;20427;-42
2023/03/03 00:28:25;;;;;;;38.37;34.97;;;8.20;24.10;;;;;;4947149;29;20472;-42
2023/03/03 00:30:52;;;;;;;39.40;35.70;;;8.10;24.00;;;;;;4947406;29;20460;-42
2023/03/03 00:33:27;;;;;;;39.60;36.00;;;8.10;24.40;;;;;;4947356;29;20840;-46
2023/03/03 00:35:56;;;;;;;37.93;34.60;;;8.10;24.20;;;;;;4947102;29;20423;-47
2023/03/03 00:38:22;;;;;;;37.20;34.03;;;8.10;24.10;;;;;;4947540;29;20427;-45
2023/03/03 00:40:48;;;;;;;37.43;34.03;;;8.10;24.10;;;;;;4947090;29;20566;-42
2023/03/03 00:43:28;;;;;;;39.97;36.57;;;8.10;24.20;;;;;;4947423;29;20426;-42
2023/03/03 00:45:55;;;;;;;39.00;35.63;;;8.10;24.10;;;;;;4946428;29;20436;-43
2023/03/03 00:48:22;;;;;;;40.37;36.63;;;8.10;24.30;;;;;;4946867;29;20514;-44
2023/03/03 00:50:50;;;;;;;39.23;35.80;;;8.10;24.30;;;;;;4946237;29;20491;-43
2023/03/03 00:53:21;;;;;;;39.27;35.93;;;8.10;24.10;;;;;;4945954;29;20420;-46
2023/03/03 00:55:48;;;;;;;41.10;37.50;;;7.80;24.40;;;;;;4946592;29;20464;-42
2023/03/03 00:58:14;;;;;;;38.83;35.50;;;7.40;25.60;;;;;;4945951;29;20424;-42
2023/03/03 01:00:40;;;;;;;41.20;37.50;;;7.10;26.20;;;;;;4946408;29;20467;-43
2023/03/03 01:03:11;;;;;;;37.57;34.30;;;7.00;26.90;;;;;;4946345;29;20478;-43
2023/03/03 01:05:37;;;;;;;40.20;36.50;;;6.80;27.10;;;;;;4946750;29;20435;-44
2023/03/03 01:08:03;;;;;;;39.53;36.03;;;6.80;27.70;;;;;;4946232;29;20440;-46
2023/03/03 01:10:32;;;;;;;39.30;35.90;;;7.00;27.10;;;;;;4945802;29;20195;-48
2023/03/03 01:12:58;;;;;;;38.17;34.77;;;7.20;26.60;;;;;;4946454;29;20435;-45
2023/03/03 01:15:24;;;;;;;38.37;34.90;;;7.30;25.80;;;;;;4946764;29;20604;-42
2023/03/03 01:17:50;;;;;;;39.10;35.53;;;7.10;26.30;;;;;;4945722;29;20180;-44
2023/03/03 01:20:16;;;;;;;40.07;36.57;;;7.10;27.00;;;;;;4946193;29;20192;-43
2023/03/03 01:22:42;;;;;;;40.60;37.00;;;7.20;26.40;;;;;;4945990;29;20184;-46
2023/03/03 01:25:08;;;;;;;38.57;34.97;;;7.40;25.90;;;;;;4945673;29;20442;-44
2023/03/03 01:27:34;;;;;;;36.83;33.63;;;7.50;25.50;;;;;;4945647;29;20638;-42
2023/03/03 01:30:00;;;;;;;40.03;36.53;;;7.30;25.60;;;;;;4946302;29;20503;-44
2023/03/03 01:32:27;;;;;;;39.10;35.80;;;7.00;26.60;;;;;;4945869;29;20522;-45
2023/03/03 01:34:53;;;;;;;38.13;34.80;;;6.60;27.10;;;;;;4945738;29;20227;-43
2023/03/03 01:37:19;;;;;;;37.97;34.40;;;6.30;28.50;;;;;;4945945;29;20991;-44
2023/03/03 01:39:53;;;;;;;37.97;34.60;;;6.20;28.70;;;;;;4946043;29;20498;-44
2023/03/03 01:42:19;;;;;;;38.17;34.83;;;6.10;29.40;;;;;;4945554;29;20474;-45
2023/03/03 01:44:45;;;;;;;40.40;37.00;;;6.10;29.20;;;;;;4945707;29;20495;-44
2023/03/03 01:47:33;;;;;;;38.20;35.10;;;6.10;29.10;;;;;;4946127;29;20427;-57
2023/03/03 01:50:03;;;;;;;38.23;35.00;;;6.00;29.40;;;;;;4945711;29;20432;-58
2023/03/03 01:52:49;;;;;;;39.63;36.13;;;6.00;29.40;;;;;;4946445;29;20866;-55
2023/03/03 01:55:20;;;;;;;38.83;35.23;;;6.10;29.50;;;;;;4929833;29;20487;-56
2023/03/03 01:57:55;;;;;;;39.57;36.03;;;6.40;28.50;;;;;;4946083;29;20424;-49
2023/03/03 02:00:20;;;;;;;39.40;35.93;;;6.30;28.20;;;;;;4930983;29;20507;-44
2023/03/03 02:02:47;;;;;;;37.50;33.97;;;6.30;28.50;;;;;;4946214;29;20522;-45
2023/03/03 02:05:13;;;;;;;39.57;36.13;;;6.20;28.80;;;;;;4946481;28;20626;-43
2023/03/03 02:07:39;;;;;;;40.50;37.03;;;6.00;29.20;;;;;;4949893;29;20859;-44
2023/03/03 02:10:12;;;;;;;39.50;36.00;;;6.00;29.40;;;;;;4949727;29;20455;-43
2023/03/03 02:12:47;;;;;;;40.63;37.23;;;6.00;29.40;;;;;;4951295;29;20426;-42
2023/03/03 02:15:17;;;;;;;40.03;36.33;;;5.90;29.40;;;;;;4949689;29;20770;-43
2023/03/03 02:17:43;;;;;;;40.47;36.60;;;5.90;29.40;;;;;;4949946;29;20991;-47
2023/03/03 02:20:19;;;;;;;38.43;34.73;;;6.10;29.20;;;;;;4949875;29;20558;-42
2023/03/03 02:23:17;;;;;;;40.00;36.57;;;6.00;29.40;;;;;;4949674;29;20440;-41
2023/03/03 02:25:56;;;;;;;38.60;35.30;;;6.20;28.90;;;;;;4929287;29;20835;-43
2023/03/03 02:28:28;;;;;;;39.27;35.83;;;6.50;28.60;;;;;;4949597;29;20466;-42
2023/03/03 02:30:55;;;;;;;39.67;35.97;;;6.70;27.80;;;;;;4949543;29;20427;-42
2023/03/03 02:33:21;;;;;;;41.37;37.37;;;7.00;27.00;;;;;;4934502;29;20427;-42
2023/03/03 02:35:47;;;;;;;41.97;38.07;;;7.00;26.50;;;;;;4950093;29;20435;-44
2023/03/03 02:38:27;;;;;;;40.27;36.40;;;7.20;26.20;;;;;;4949310;29;20438;-45
2023/03/03 02:41:09;;;;;;;39.33;35.83;;;7.30;25.70;;;;;;4948402;29;20303;-44
2023/03/03 02:43:55;;;;;;;41.00;37.40;;;7.40;25.50;;;;;;4949069;29;20420;-43
2023/03/03 02:46:21;;;;;;;40.90;37.17;;;7.40;25.20;;;;;;4933015;29;20483;-42
2023/03/03 02:48:46;;;;;;;40.27;36.67;;;7.40;25.00;;;;;;4948324;29;20455;-46
2023/03/03 02:51:12;;;;;;;41.73;37.93;;;7.50;25.10;;;;;;4948416;29;20188;-45
2023/03/03 02:53:37;;;;;;;41.53;37.77;;;7.50;25.00;;;;;;4949357;29;20195;-47
2023/03/03 02:56:03;;;;;;;41.20;37.37;;;7.30;25.30;;;;;;4948963;29;20502;-47
2023/03/03 02:58:29;;;;;;;40.27;36.70;;;6.90;26.10;;;;;;4948728;29;20187;-58
2023/03/03 03:00:55;;;;;;;41.73;38.10;;;6.50;27.10;;;;;;4949083;29;20459;-57
2023/03/03 03:03:21;;;;;;;43.80;39.63;;;6.60;26.90;;;;;;4949121;29;20420;-59
2023/03/03 03:05:47;;;;;;;43.27;39.40;;;6.40;27.40;;;;;;4948888;29;20191;-58
2023/03/03 03:08:13;;;;;;;42.83;39.10;;;6.40;27.50;;;;;;4948497;29;20448;-54
2023/03/03 03:10:38;;;;;;;41.10;37.30;;;6.10;28.10;;;;;;4948585;29;20708;-58
2023/03/03 03:13:04;;;;;;;42.73;38.67;;;6.00;29.10;;;;;;4949070;29;20412;-56
2023/03/03 03:15:30;;;;;;;41.50;37.63;;;5.90;28.80;;;;;;4948626;29;20219;-44
2023/03/03 03:17:55;;;;;;;40.93;37.30;;;5.80;29.30;;;;;;4947223;28;20219;-43
2023/03/03 03:20:21;;;;;;;41.17;37.10;;;5.80;29.30;;;;;;4948153;29;20239;-57
2023/03/03 03:22:47;;;;;;;42.23;38.20;;;5.70;29.30;;;;;;4948467;29;20649;-58
2023/03/03 03:25:12;;;;;;;42.40;38.47;;;5.80;29.70;;;;;;4948084;29;20249;-57
2023/03/03 03:27:38;;;;;;;40.27;36.50;;;6.00;29.20;;;;;;4947822;29;20275;-57
2023/03/03 03:30:04;;;;;;;42.07;38.20;;;5.90;29.40;;;;;;4948042;29;20195;-55
2023/03/03 03:32:30;;;;;;;44.33;40.27;;;5.90;29.40;;;;;;4948327;29;20195;-58
2023/03/03 03:34:55;;;;;;;42.10;37.90;;;6.10;29.20;;;;;;4948026;29;20430;-57
2023/03/03 03:37:21;;;;;;;44.13;40.33;;;6.30;28.90;;;;;;4948065;29;20235;-56
2023/03/03 03:39:47;;;;;;;40.47;36.97;;;6.40;28.10;;;;;;4947272;29;20232;-57
2023/03/03 03:42:12;;;;;;;43.73;39.60;;;6.50;28.40;;;;;;4948064;29;20243;-57
2023/03/03 03:44:38;;;;;;;43.13;38.87;;;6.60;27.60;;;;;;4947844;29;20179;-55
2023/03/03 03:47:04;;;;;;;41.27;37.60;;;6.60;27.80;;;;;;4932926;29;20577;-47
2023/03/03 03:49:29;;;;;;;43.37;39.20;;;6.60;27.40;;;;;;4947691;29;20180;-46
2023/03/03 03:51:55;;;;;;;41.00;37.20;;;6.70;27.70;;;;;;4947985;29;20188;-45
2023/03/03 03:54:21;;;;;;;39.87;36.37;;;6.70;27.60;;;;;;4947808;29;20191;-45
2023/03/03 03:56:46;;;;;;;43.27;39.53;;;6.70;27.80;;;;;;4947037;29;20727;-44
2023/03/03 03:59:12;;;;;;;43.57;39.27;;;6.90;26.90;;;;;;4947860;29;20569;-44
2023/03/03 04:01:37;;;;;;;44.83;40.50;;;6.80;27.00;;;;;;4947689;29;20219;-42
2023/03/03 04:04:03;;;;;;;42.40;38.60;;;7.00;26.60;;;;;;4946961;29;20176;-42
2023/03/03 04:06:30;;;;;;;44.37;40.27;;;7.00;26.20;;;;;;4946693;29;20176;-47
2023/03/03 04:08:56;;;;;;;42.80;38.90;;;7.00;25.90;;;;;;4947793;29;20443;-47
2023/03/03 04:11:21;;;;;;;43.93;40.10;;;6.90;26.50;;;;;;4931954;29;20787;-44
2023/03/03 04:13:47;;;;;;;43.17;39.17;;;6.90;26.60;;;;;;4947535;29;20255;-43
2023/03/03 04:16:13;;;;;;;45.03;40.90;;;7.10;26.00;;;;;;4947417;29;20275;-57
2023/03/03 04:18:40;;;;;;;44.17;40.00;;;7.00;26.60;;;;;;4947439;29;20187;-45
2023/03/03 04:21:05;;;;;;;46.23;41.53;;;6.90;26.60;;;;;;4946928;29;20210;-46
2023/03/03 04:23:31;;;;;;;44.07;40.17;;;7.00;26.60;;;;;;4947888;29;20407;-43
2023/03/03 04:25:57;;;;;;;44.20;39.90;;;7.00;26.10;;;;;;4946567;29;20579;-44
2023/03/03 04:28:24;;;;;;;44.23;40.30;;;7.00;26.40;;;;;;4947626;28;20195;-42
2023/03/03 04:30:49;;;;;;;45.43;40.90;;;7.20;26.00;;;;;;4946627;29;20184;-42
2023/03/03 04:33:15;;;;;;;44.07;39.97;;;7.30;25.60;;;;;;4946679;29;20834;-43
2023/03/03 04:35:40;;;;;;;44.00;39.87;;;7.40;25.20;;;;;;4947136;29;20652;-45
2023/03/03 04:38:06;;;;;;;42.80;38.80;;;7.50;24.90;;;;;;4946820;29;20188;-44
2023/03/03 04:40:32;;;;;;;44.07;39.97;;;7.60;25.00;;;;;;4947812;29;20517;-43
2023/03/03 04:42:57;;;;;;;42.67;38.73;;;7.70;24.40;;;;;;4947138;29;20183;-42
2023/03/03 04:45:23;;;;;;;42.60;38.50;;;7.70;24.30;;;;;;4946648;29;20183;-47
2023/03/03 04:47:49;;;;;;;45.90;41.37;;;7.80;24.10;;;;;;4946965;29;20172;-43
2023/03/03 04:50:15;;;;;;;43.50;39.33;;;7.80;23.60;;;;;;4946971;29;20652;-43
2023/03/03 04:52:41;;;;;;;40.03;36.37;;;7.90;24.00;;;;;;4946283;29;20436;-45
2023/03/03 04:55:07;;;;;;;42.00;38.27;;;8.00;23.60;;;;;;4946748;29;20432;-44
2023/03/03 04:57:32;;;;;;;42.40;38.47;;;8.10;23.10;;;;;;4931338;29;20227;-43
2023/03/03 04:59:58;;;;;;;43.37;39.33;;;8.20;23.00;;;;;;4946979;29;20412;-42
2023/03/03 05:02:24;;;;;;;41.83;37.90;;;8.30;22.90;;;;;;4946552;29;20568;-44
2023/03/03 05:04:49;;;;;;;42.40;38.07;;;8.30;22.90;;;;;;4947384;29;20172;-47
2023/03/03 05:07:16;;;;;;;40.77;36.73;;;8.30;22.90;;;;;;4946624;29;20235;-43
2023/03/03 05:09:42;;;;;;;43.00;38.87;;;8.40;22.50;;;;;;4947512;29;20180;-44
2023/03/03 05:12:07;;;;;;;41.17;37.20;;;8.40;22.40;;;;;;4947346;29;20707;-46
2023/03/03 05:14:33;;;;;;;44.37;40.27;;;8.40;22.50;;;;;;4947695;29;20183;-46
2023/03/03 05:16:58;;;;;;;43.63;39.30;;;8.30;22.30;;;;;;4947208;29;20179;-44
2023/03/03 05:19:25;;;;;;;42.17;38.13;;;8.20;22.50;;;;;;4931275;29;20203;-46
2023/03/03 05:21:50;;;;;;;43.20;39.30;;;8.20;22.80;;;;;;4947426;29;20587;-43
2023/03/03 05:24:16;;;;;;;43.07;39.07;;;8.10;22.70;;;;;;4947181;29;20412;-47
2023/03/03 05:26:42;;;;;;;42.00;38.20;;;8.00;22.70;;;;;;4947869;29;20179;-46
2023/03/03 05:29:08;;;;;;;43.63;39.50;;;8.00;22.70;;;;;;4931715;29;20230;-45
2023/03/03 05:31:34;;;;;;;43.27;39.47;;;8.00;22.60;;;;;;4948330;29;20180;-46
2023/03/03 05:34:00;;;;;;;42.87;38.70;;;8.00;22.70;;;;;;4947757;29;20427;-44
2023/03/03 05:36:26;;;;;;;43.80;39.67;;;8.00;22.70;;;;;;4947393;29;20956;-44
2023/03/03 05:38:51;;;;;;;43.67;39.60;;;8.00;22.70;;;;;;4951147;28;20176;-42
2023/03/03 05:41:17;;;;;;;43.77;39.63;;;8.00;22.70;;;;;;4949957;28;20211;-50
2023/03/03 05:43:43;;;;;;;43.13;39.13;;;8.00;22.70;;;;;;4951397;29;20182;-49
2023/03/03 05:46:09;;;;;;;43.33;39.50;;;8.00;22.70;;;;;;4956221;28;20645;-43
2023/03/03 05:48:35;;;;;;;42.40;38.20;;;8.00;22.60;;;;;;4951100;29;20510;-49
2023/03/03 05:51:00;;;;;;;40.80;37.07;;;8.00;22.70;;;;;;4951173;28;20522;-43
2023/03/03 05:53:27;;;;;;;44.37;39.77;;;8.10;22.70;;;;;;4951944;29;20644;-44
2023/03/03 05:55:53;;;;;;;43.63;39.50;;;7.80;22.60;;;;;;4951699;29;20180;-42
2023/03/03 05:58:19;;;;;;;42.87;38.97;;;7.50;23.80;;;;;;4950909;29;20426;-48
2023/03/03 06:00:44;;;;;;;42.80;38.70;;;7.50;24.10;;;;;;4951867;28;20660;-49
2023/03/03 06:03:10;;;;;;;44.23;39.90;;;7.60;23.50;;;;;;4951393;29;20182;-50
2023/03/03 06:05:36;;;;;;;43.70;39.70;;;7.70;22.80;;;;;;4952135;29;20179;-58
2023/03/03 06:08:01;;;;;;;40.10;36.23;;;7.60;22.90;;;;;;4951901;29;20231;-56
2023/03/03 06:10:27;;;;;;;38.00;34.47;;;7.70;22.50;;;;;;4952328;29;20202;-57
2023/03/03 06:12:53;;;;;;;41.40;37.50;;;7.60;22.40;;;;;;4952294;29;20175;-58
2023/03/03 06:15:20;;;;;;;38.40;34.83;;;7.60;22.40;;;;;;4968194;28;20183;-58
2023/03/03 06:17:46;;;;;;;39.13;35.60;;;7.40;22.30;;;;;;4953651;29;20414;-58
2023/03/03 06:20:11;;;;;;;40.27;36.67;;;7.20;23.10;;;;;;4952389;29;20423;-55
2023/03/03 06:22:37;;;;;;;38.40;34.70;;;7.30;22.60;;;;;;4952030;29;20612;-53
2023/03/03 06:25:03;;;;;;;39.43;35.73;;;7.40;22.50;;;;;;4951882;29;20262;-54
2023/03/03 06:27:29;;;;;;;39.07;35.40;;;7.50;22.40;;;;;;4953808;29;20418;-47
2023/03/03 06:29:54;;;;;;;37.43;34.10;;;7.50;22.40;;;;;;4951834;29;20418;-42
2023/03/03 06:32:20;;;;;;;38.73;35.10;;;7.50;22.40;;;;;;4951620;29;20186;-46
2023/03/03 06:34:46;;;;;;;39.43;35.73;;;7.70;22.20;;;;;;4951937;29;20242;-45
2023/03/03 06:37:11;;;;;;;37.63;34.33;;;7.70;22.00;;;;;;4951903;29;20176;-44
2023/03/03 06:39:37;;;;;;;38.73;35.03;;;7.70;21.80;;;;;;4950692;29;20186;-42
2023/03/03 06:42:03;;;;;;;38.00;34.80;;;7.70;21.80;;;;;;4950472;28;20248;-44
2023/03/03 06:44:28;;;;;;;38.33;34.87;;;7.60;22.10;;;;;;4967052;28;20262;-57
2023/03/03 06:46:56;;;;;;;40.27;36.40;;;7.60;22.40;;;;;;4951901;29;20234;-54
2023/03/03 06:49:22;;;;;;;38.97;35.50;;;7.60;22.40;;;;;;4952859;29;20175;-58
2023/03/03 06:51:47;;;;;;;40.57;36.30;;;7.60;22.40;;;;;;4951587;28;20427;-58
2023/03/03 06:54:19;;;;;;;38.50;34.77;;;7.70;22.50;;;;;;4955346;29;20926;-58
2023/03/03 06:56:46;;;;;;;37.77;34.33;;;7.60;22.40;;;;;;4954757;29;20179;-47
2023/03/03 06:59:18;;;;;;;39.97;36.27;;;7.60;23.30;;;;;;4959949;28;20450;-44
2023/03/03 07:01:45;;;;;;;39.37;35.47;;;7.70;23.60;;;;;;4948378;29;20693;-42
2023/03/03 07:04:19;;;;;;;38.80;35.20;;;7.70;23.30;;;;;;4948543;29;20415;-46
2023/03/03 07:06:45;;;;;;;37.93;34.50;;;7.80;22.80;;;;;;4954229;29;20421;-46
2023/03/03 07:09:29;;;;;;;37.47;33.67;;;7.80;22.60;;;;;;4953401;29;20521;-49
2023/03/03 07:12:09;;;;;;;36.17;32.80;;;7.70;21.80;;;;;;4970355;28;20550;-47
2023/03/03 07:14:42;;;;;;;37.93;34.20;;;7.70;21.80;;;;;;4961083;28;20439;-57
2023/03/03 07:17:18;;;;;;;35.53;32.43;;;7.70;21.30;;;;;;4967926;28;20428;-55
2023/03/03 07:19:45;;;;;;;35.43;32.10;;;7.70;21.50;;;;;;4953410;29;20490;-56
2023/03/03 07:22:14;;;;;;;34.90;31.97;;;7.60;21.30;;;;;;4964203;28;20477;-55
2023/03/03 07:24:42;;;;;;;35.33;32.20;;;7.50;21.20;;;;;;4970209;28;20432;-57
2023/03/03 07:27:16;;;;;;;36.03;32.73;;;7.30;22.20;;;;;;4954052;28;20411;-56
2023/03/03 07:29:41;;;;;;;34.40;31.50;;;7.30;22.20;;;;;;4969852;28;20915;-56
2023/03/03 07:32:34;;;;;;;35.50;31.90;;;7.50;21.60;;;;;;4953649;29;20522;-57
2023/03/03 07:35:01;;;;;;;35.10;31.87;;;7.50;21.70;;;;;;4953866;28;20191;-58
2023/03/03 07:37:37;;;;;;;36.30;33.00;;;7.30;21.70;;;;;;4954247;29;20683;-58
2023/03/03 07:40:44;;;;;;;36.43;33.20;;;7.20;22.10;;;;;;4969602;28;20431;-60
2023/03/03 07:43:36;;;;;;;35.00;31.80;;;7.00;22.50;;;;;;4952581;28;20798;-48
2023/03/03 07:46:13;;;;;;;36.23;32.83;;;7.20;22.40;;;;;;4972599;28;20504;-48
2023/03/03 07:48:41;;;;;;;36.27;32.97;;;7.30;22.20;;;;;;4979948;28;20439;-44
2023/03/03 07:51:24;;;;;;;36.87;33.30;;;7.50;21.90;;;;;;4953941;29;20571;-46
2023/03/03 07:53:51;;;;;;;35.70;32.50;;;7.60;21.40;;;;;;4966686;28;20427;-42
2023/03/03 07:56:34;;;;;;;36.83;33.13;;;7.70;21.50;;;;;;4954698;28;20758;-45
2023/03/03 07:59:08;;;;;;;36.27;32.80;;;7.80;21.10;;;;;;4964877;28;20513;-47
2023/03/03 08:01:43;;;;;;;36.23;32.73;;;7.90;20.90;;;;;;4940641;29;21013;-46
2023/03/03 08:04:19;;;;;;;36.83;33.10;;;7.70;20.90;;;;;;4944793;28;20756;-45
2023/03/03 08:06:50;;;;;;;35.50;32.20;;;7.20;22.10;;;;;;4961062;28;21403;-44
2023/03/03 08:09:16;;;;;;;35.00;31.80;;;7.30;22.20;;;;;;4932598;29;20964;-43
2023/03/03 08:11:58;;;;;;;34.50;31.50;;;7.50;21.80;;;;;;4948309;29;20452;-45
2023/03/03 08:14:30;;;;;;;35.60;32.33;;;7.60;21.40;;;;;;4936462;29;20182;-45
2023/03/03 08:16:57;;;;;;;34.53;31.43;;;7.60;21.10;;;;;;4948699;29;20420;-43
2023/03/03 08:19:23;;;;;;;35.40;32.00;;;7.70;21.20;;;;;;4961049;28;20798;-48
2023/03/03 08:21:49;;;;;;;35.60;32.27;;;7.80;20.90;;;;;;4967697;28;20484;-45
2023/03/03 08:24:14;;;;;;;35.83;32.20;;;7.80;20.70;;;;;;4973987;28;20497;-49
2023/03/03 08:26:40;;;;;;;34.33;31.03;;;7.90;20.90;;;;;;4972752;28;20464;-48
2023/03/03 08:29:06;;;;;;;35.40;32.10;;;7.90;21.40;;;;;;4972638;28;20203;-51
2023/03/03 08:31:31;;;;;;;32.67;29.47;;;7.90;20.60;;;;;;4972606;28;20219;-44
2023/03/03 08:33:57;;;;;;;33.23;30.20;;;7.80;20.30;;;;;;4961928;28;20546;-59
2023/03/03 08:36:23;;;;;;;28.47;26.00;;;7.70;20.20;;;;;;4969206;28;20237;-45
2023/03/03 08:38:49;;;;;;;28.53;26.03;;;7.70;20.00;;;;;;4968844;28;20423;-48
2023/03/03 08:41:14;;;;;;;30.43;27.73;;;7.70;20.00;;;;;;4968780;28;20599;-47
2023/03/03 08:43:40;;;;;;;31.00;28.27;;;7.70;19.70;;;;;;4968674;28;20184;-47
2023/03/03 08:46:06;;;;;;;31.00;28.13;;;7.70;19.40;;;;;;4952688;29;20172;-46
2023/03/03 08:48:32;;;;;;;30.03;27.43;;;7.60;19.90;;;;;;4952506;28;20640;-48
2023/03/03 08:50:58;;;;;;;30.70;28.10;;;7.60;20.00;;;;;;4952144;29;20485;-46
2023/03/03 08:53:24;;;;;;;30.43;27.90;;;7.60;20.00;;;;;;4952625;29;20940;-49
2023/03/03 08:55:50;;;;;;;30.63;27.80;;;7.60;19.90;;;;;;4953979;29;20515;-44
2023/03/03 08:58:17;;;;;;;29.43;26.80;;;7.70;19.70;;;;;;4952904;29;20963;-58
2023/03/03 09:00:43;;;;;;;29.83;27.07;;;7.50;20.50;;;;;;4957747;28;20321;-57
2023/03/03 09:03:09;;;;;;;30.43;27.73;;;7.50;20.30;;;;;;4958416;28;20904;-58
2023/03/03 09:05:36;;;;;;;30.97;28.50;;;7.60;20.00;;;;;;4952423;29;20563;-58
2023/03/03 09:08:03;;;;;;;31.20;28.47;;;7.70;20.00;;;;;;4952325;29;20191;-58
2023/03/03 09:10:30;;;;;;;29.07;26.40;;;7.70;20.00;;;;;;4952092;29;20427;-58
2023/03/03 09:13:05;;;;;;;31.77;28.77;;;7.80;19.80;;;;;;4951299;29;20427;-58
2023/03/03 09:15:37;;;;;;;29.87;27.17;;;7.90;19.80;;;;;;4941573;28;20462;-59
2023/03/03 09:18:23;;;;;;;30.63;27.80;;;7.90;20.10;;;;;;4949897;28;20415;-58
2023/03/03 09:20:56;;;;;;;30.67;27.70;;;7.70;19.80;;;;;;4963883;28;20458;-59
2023/03/03 09:23:52;;;;;;;29.80;27.03;;;7.60;20.30;;;;;;4967734;28;20510;-59
2023/03/03 09:26:27;;;;;;;29.97;27.17;;;7.70;20.50;;;;;;4951524;29;20431;-59
2023/03/03 09:29:27;;;;;;;32.30;29.60;;;7.90;20.30;;;;;;4967963;28;20470;-59
2023/03/03 09:31:57;;;;;;;30.97;28.30;;;8.00;19.90;;;;;;4950903;29;20426;-58
2023/03/03 09:34:27;;;;;;;32.40;29.57;;;8.00;20.50;;;;;;4968079;28;20427;-60
2023/03/03 09:36:54;;;;;;;30.53;27.93;;;8.10;20.10;;;;;;4968277;28;20429;-59
2023/03/03 09:39:24;;;;;;;31.63;28.73;;;8.30;19.80;;;;;;4952176;29;20438;-58
2023/03/03 09:42:09;;;;;;;31.90;29.30;;;8.60;19.30;;;;;;4952468;29;20605;-57
2023/03/03 09:45:05;;;;;;;31.87;29.20;;;8.90;19.50;;;;;;4979979;28;20426;-59
2023/03/03 09:47:55;;;;;;;33.57;30.77;;;9.10;19.00;;;;;;4934537;29;20416;-48
2023/03/03 09:50:39;;;;;;;33.40;30.30;;;9.10;19.20;;;;;;4949176;29;20438;-44
2023/03/03 09:53:23;;;;;;;32.93;30.03;;;9.20;18.60;;;;;;4949023;29;20430;-57
2023/03/03 09:56:05;;;;;;;32.87;29.97;;;9.00;18.90;;;;;;4949072;29;20417;-59
2023/03/03 09:58:44;;;;;;;34.30;31.33;;;9.10;18.80;;;;;;4952421;29;20517;-58
2023/03/03 10:01:12;;;;;;;32.93;30.13;;;9.10;18.70;;;;;;4967690;28;20466;-44
2023/03/03 10:04:09;;;;;;;34.87;31.80;;;9.30;18.70;;;;;;4968405;28;20419;-45
2023/03/03 10:06:42;;;;;;;33.67;31.03;;;9.30;18.60;;;;;;4968073;28;20415;-45
2023/03/03 10:09:31;;;;;;;33.10;30.20;;;9.40;18.60;;;;;;4967983;28;20928;-45
2023/03/03 10:12:06;;;;;;;35.77;32.77;;;9.40;18.30;;;;;;4967627;28;20456;-43
2023/03/03 10:14:50;;;;;;;36.13;32.90;;;9.40;18.60;;;;;;4968369;28;20944;-43
2023/03/03 10:17:31;;;;;;;35.13;32.23;;;9.40;18.40;;;;;;4968070;28;20426;-49
2023/03/03 10:20:13;;;;;;;33.80;30.80;;;9.50;18.30;;;;;;4951826;29;20411;-46
2023/03/03 10:22:45;;;;;;;35.57;32.37;;;9.50;18.00;;;;;;4967671;28;20471;-43
2023/03/03 10:25:34;;;;;;;32.33;29.47;;;9.50;18.10;;;;;;4967695;28;20418;-42
2023/03/03 10:28:00;;;;;;;32.70;30.00;;;9.40;18.20;;;;;;4970773;28;20446;-43
2023/03/03 10:30:31;;;;;;;33.10;30.20;;;9.10;18.90;;;;;;4971719;28;20454;-44
2023/03/03 10:33:04;;;;;;;32.40;29.73;;;9.20;18.60;;;;;;4971155;28;20210;-47
2023/03/03 10:35:34;;;;;;;35.90;32.70;;;9.10;18.20;;;;;;4954790;28;20427;-47
2023/03/03 10:38:15;;;;;;;34.13;31.10;;;9.20;18.60;;;;;;4954738;29;20407;-50
2023/03/03 10:41:03;;;;;;;34.10;31.13;;;9.30;18.50;;;;;;4971311;28;20415;-44
2023/03/03 10:43:53;;;;;;;33.07;30.40;;;9.30;18.30;;;;;;4966985;28;20410;-45
2023/03/03 10:46:33;;;;;;;32.43;29.63;;;9.20;19.30;;;;;;4971517;28;20425;-46
2023/03/03 10:49:10;;;;;;;33.07;30.37;;;9.40;18.90;;;;;;4970958;28;20679;-47
2023/03/03 10:51:50;;;;;;;32.67;29.77;;;9.50;19.50;;;;;;4971302;28;20501;-42
2023/03/03 10:54:29;;;;;;;34.23;31.03;;;9.70;18.40;;;;;;4954566;29;20423;-44
2023/03/03 10:57:18;;;;;;;33.60;30.83;;;9.50;18.20;;;;;;4951574;29;20603;-47
2023/03/03 11:00:04;;;;;;;35.57;32.03;;;9.20;18.70;;;;;;4966027;28;20419;-44
2023/03/03 11:03:07;;;;;;;33.83;30.93;;;9.30;18.90;;;;;;4963758;28;20462;-46
2023/03/03 11:05:46;;;;;;;34.30;31.40;;;9.40;18.30;;;;;;4954862;29;20430;-43
2023/03/03 11:08:33;;;;;;;37.07;34.07;;;9.50;18.50;;;;;;4970673;28;20449;-48
2023/03/03 11:11:35;;;;;;;36.77;33.57;;;9.70;18.10;;;;;;4954674;29;20422;-44
2023/03/03 11:14:07;;;;;;;37.37;34.17;;;9.70;18.00;;;;;;4970728;28;20415;-44
2023/03/03 11:16:32;;;;;;;35.00;32.00;;;9.70;18.30;;;;;;4970651;28;20422;-44
2023/03/03 11:19:10;;;;;;;36.63;33.57;;;9.80;18.50;;;;;;4970725;28;20426;-46
2023/03/03 11:21:54;;;;;;;37.60;34.10;;;9.70;18.50;;;;;;4970579;28;20207;-46
2023/03/03 11:24:47;;;;;;;33.33;30.63;;;9.70;18.40;;;;;;4970978;28;20954;-44
2023/03/03 11:27:37;;;;;;;35.30;32.40;;;9.70;18.70;;;;;;4952267;29;20427;-45
2023/03/03 11:30:29;;;;;;;34.77;31.50;;;9.60;19.00;;;;;;4970372;28;20813;-43
2023/03/03 11:33:00;;;;;;;37.07;33.77;;;9.70;18.80;;;;;;4971036;28;20767;-44
2023/03/03 11:35:44;;;;;;;35.50;32.33;;;9.80;18.50;;;;;;4989993;28;20410;-45
2023/03/03 11:38:41;;;;;;;35.87;32.90;;;9.80;18.50;;;;;;4988820;28;20410;-56
2023/03/03 11:41:24;;;;;;;38.60;35.17;;;9.80;17.70;;;;;;4955603;28;20558;-56
2023/03/03 11:44:11;;;;;;;36.67;33.43;;;9.40;18.30;;;;;;4975222;28;20425;-58
2023/03/03 11:46:43;;;;;;;34.60;31.70;;;9.40;18.50;;;;;;4973251;28;20472;-58
2023/03/03 11:49:14;;;;;;;34.77;31.87;;;9.50;18.40;;;;;;4982877;28;20423;-57
2023/03/03 11:51:46;;;;;;;35.30;32.30;;;9.60;17.90;;;;;;4969827;28;20419;-57
2023/03/03 11:54:22;;;;;;;36.43;33.33;;;9.70;17.80;;;;;;4969015;28;20438;-56
2023/03/03 11:56:48;;;;;;;35.53;32.47;;;9.90;17.60;;;;;;4962686;28;20434;-57
2023/03/03 11:59:32;;;;;;;35.47;32.57;;;9.90;17.80;;;;;;4953484;29;20427;-56
2023/03/03 12:02:22;;;;;;;37.13;33.73;;;10.00;16.90;;;;;;4954165;29;20832;-58
2023/03/03 12:04:54;;;;;;;34.00;31.10;;;10.10;16.90;;;;;;4969650;28;20434;-58
2023/03/03 12:07:36;;;;;;;32.73;29.93;;;10.20;16.90;;;;;;4952913;29;20778;-51
2023/03/03 12:10:25;;;;;;;36.90;33.40;;;10.20;16.40;;;;;;4962234;28;20945;-57
2023/03/03 12:13:05;;;;;;;35.33;32.40;;;10.20;16.20;;;;;;4948380;29;20454;-56
2023/03/03 12:15:46;;;;;;;34.67;31.57;;;10.20;16.10;;;;;;4952833;28;20424;-56
2023/03/03 12:18:30;;;;;;;33.13;30.17;;;10.10;16.30;;;;;;4959899;28;20912;-55
2023/03/03 12:21:07;;;;;;;33.80;30.80;;;10.20;16.20;;;;;;4965871;28;20938;-57
2023/03/03 12:24:06;;;;;;;33.40;30.60;;;10.20;16.30;;;;;;4962609;28;20830;-56
2023/03/03 12:27:13;;;;;;;34.63;31.53;;;10.30;15.80;;;;;;4963162;28;20445;-56
2023/03/03 12:29:39;;;;;;;31.80;29.00;;;10.30;15.80;;;;;;4898256;29;20413;-58
2023/03/03 12:32:23;;;;;;;33.77;30.87;;;10.30;15.80;;;;;;4897845;29;20497;-57
2023/03/03 12:35:09;;;;;;;33.80;30.90;;;10.20;16.00;;;;;;4936877;29;20202;-58
2023/03/03 12:37:57;;;;;;;31.63;29.03;;;10.20;15.50;;;;;;4933551;29;20836;-55
2023/03/03 12:40:33;;;;;;;30.63;28.03;;;10.00;16.00;;;;;;4969015;28;20753;-57
2023/03/03 12:43:37;;;;;;;31.60;29.00;;;10.10;16.10;;;;;;4952711;29;20419;-57
2023/03/03 12:46:27;;;;;;;31.47;28.87;;;10.10;15.90;;;;;;4968490;28;20423;-57
2023/03/03 12:48:52;;;;;;;32.90;30.00;;;10.30;15.50;;;;;;4968698;28;20498;-57
2023/03/03 12:51:44;;;;;;;33.23;30.60;;;10.30;15.50;;;;;;4951251;28;20812;-56
2023/03/03 12:54:36;;;;;;;33.57;30.77;;;10.40;15.70;;;;;;4968223;28;20267;-57
2023/03/03 12:57:23;;;;;;;30.70;28.10;;;10.40;15.80;;;;;;4968358;28;20415;-58
2023/03/03 12:59:58;;;;;;;31.00;28.27;;;10.40;16.00;;;;;;4948158;29;20495;-58